Time;durP1;ratioP1;P1;durP2;ratioP2;P2;SDS_P1;SDS_P2;PMS_P1;PMS_P2;Temp;Humidity;BMP_temperature;BMP_pressure;BME280_temperature;BME280_humidity;BME280_pressure;Samples;Min_cycle;Max_cycle;Signal;HPM_P1;HPM_P2
2022/11/04 00:01:41;;;;;;;2.92;0.10;;;10.80;99.90;;;;;;5038055;28;20052;-76
2022/11/04 00:04:07;;;;;;;2.10;0.20;;;10.90;99.90;;;;;;5037702;28;20400;-76
2022/11/04 00:06:33;;;;;;;3.50;0.00;;;10.80;99.90;;;;;;5037668;28;20089;-77
2022/11/04 00:08:59;;;;;;;13.43;0.45;;;10.80;99.90;;;;;;5038251;28;20392;-76
2022/11/04 00:14:11;;;;;;;0.45;0.00;;;10.80;99.90;;;;;;5038567;28;20112;-76
2022/11/04 00:19:22;;;;;;;2.17;0.00;;;10.80;99.90;;;;;;5038292;28;20075;-76
2022/11/04 00:29:57;;;;;;;0.32;0.00;;;10.80;99.90;;;;;;5038202;28;20113;-77
2022/11/04 00:35:09;;;;;;;1.40;0.20;;;10.70;99.90;;;;;;5037768;28;20029;-77
2022/11/04 00:37:42;;;;;;;1.35;0.00;;;10.70;99.90;;;;;;5019428;28;20013;-77
2022/11/04 00:40:10;;;;;;;2.00;0.00;;;10.70;99.90;;;;;;5019328;28;20515;-77
2022/11/04 00:42:36;;;;;;;0.70;0.00;;;10.70;99.90;;;;;;5019823;28;20059;-76
2022/11/04 00:45:02;;;;;;;0.95;0.00;;;10.70;99.90;;;;;;5037462;28;20073;-77
2022/11/04 00:47:28;;;;;;;2.83;0.38;;;10.70;99.90;;;;;;5019536;28;20021;-77
2022/11/04 00:49:53;;;;;;;2.33;0.10;;;10.70;99.90;;;;;;5019287;28;20034;-77
2022/11/04 00:52:19;;;;;;;1.35;0.00;;;13.20;99.90;;;;;;5019200;28;20030;-77
2022/11/04 00:54:45;;;;;;;7.18;0.20;;;12.30;99.90;;;;;;5019229;28;20045;-76
2022/11/04 00:57:11;;;;;;;3.78;0.10;;;10.70;99.90;;;;;;5019756;28;20017;-76
2022/11/04 00:59:38;;;;;;;2.75;0.45;;;12.40;99.90;;;;;;5019714;28;20044;-76
2022/11/04 01:02:04;;;;;;;1.10;0.00;;;10.60;99.90;;;;;;5037146;28;20025;-76
2022/11/04 01:04:30;;;;;;;4.03;0.10;;;10.60;99.90;;;;;;5019377;28;20034;-77
2022/11/04 01:06:56;;;;;;;5.25;0.47;;;;;;;;;;5020004;28;20112;-76
2022/11/04 01:09:21;;;;;;;5.93;0.10;;;10.60;99.90;;;;;;5019873;28;20033;-76
2022/11/04 01:11:47;;;;;;;5.82;0.10;;;10.60;99.90;;;;;;5019250;28;20074;-77
2022/11/04 01:14:13;;;;;;;3.28;0.20;;;10.60;99.90;;;;;;5018631;28;20388;-77
2022/11/04 01:16:39;;;;;;;6.35;0.10;;;10.60;99.90;;;;;;5019238;28;20380;-76
2022/11/04 01:19:05;;;;;;;0.50;0.10;;;11.40;99.90;;;;;;5019415;28;20036;-76
2022/11/04 01:21:31;;;;;;;3.15;0.20;;;10.60;99.90;;;;;;5019569;28;20028;-76
2022/11/04 01:23:58;;;;;;;2.97;0.00;;;11.50;99.90;;;;;;5036515;28;20134;-77
2022/11/04 01:26:25;;;;;;;3.33;0.52;;;10.60;99.90;;;;;;5018550;28;20492;-76
2022/11/04 01:28:53;;;;;;;1.27;0.00;;;10.60;99.90;;;;;;5018474;28;20080;-76
2022/11/04 01:31:24;;;;;;;2.47;0.00;;;10.60;99.90;;;;;;5018541;28;20021;-77
2022/11/04 01:33:52;;;;;;;4.05;0.00;;;10.60;99.90;;;;;;5036517;28;20021;-76
2022/11/04 01:36:18;;;;;;;1.45;0.00;;;10.60;99.90;;;;;;5018255;28;20020;-77
2022/11/04 01:38:44;;;;;;;3.13;0.22;;;10.60;99.90;;;;;;5018779;28;20036;-76
2022/11/04 01:41:22;;;;;;;3.65;0.43;;;10.50;99.90;;;;;;5018405;28;20025;-77
2022/11/04 01:44:41;;;;;;;1.92;0.40;;;13.00;99.90;;;;;;5018632;28;20068;-76
2022/11/04 01:47:46;;;;;;;0.80;0.00;;;10.40;99.90;;;;;;5018485;28;20026;-77
2022/11/04 01:50:18;;;;;;;0.00;0.00;;;10.20;99.90;;;;;;5018007;28;20041;-77
2022/11/04 01:52:51;;;;;;;0.47;0.00;;;10.30;99.90;;;;;;5017841;28;20128;-77
2022/11/04 01:55:25;;;;;;;0.05;0.00;;;10.20;99.90;;;;;;5035852;28;20040;-77
2022/11/04 01:57:55;;;;;;;1.65;0.00;;;10.20;99.90;;;;;;5017985;28;20439;-77
2022/11/04 02:00:21;;;;;;;0.20;0.00;;;10.10;99.90;;;;;;5035244;28;20139;-77
2022/11/04 02:03:08;;;;;;;1.40;0.00;;;10.00;99.90;;;;;;5017482;28;20052;-77
2022/11/04 02:05:34;;;;;;;0.60;0.00;;;10.00;99.90;;;;;;5017532;28;20032;-77
2022/11/04 02:08:03;;;;;;;2.05;0.00;;;9.90;99.90;;;;;;5035374;28;20384;-77
2022/11/04 02:10:30;;;;;;;0.28;0.00;;;9.90;99.90;;;;;;5018047;28;20049;-77
2022/11/04 02:12:58;;;;;;;0.00;0.00;;;9.90;99.90;;;;;;5035655;28;20060;-77
2022/11/04 02:15:37;;;;;;;0.00;0.00;;;10.00;99.90;;;;;;5017579;28;20447;-77
2022/11/04 02:18:22;;;;;;;0.80;0.00;;;9.90;99.90;;;;;;5017857;28;20030;-77
2022/11/04 02:21:19;;;;;;;2.55;0.47;;;9.90;99.90;;;;;;5017606;28;20080;-78
2022/11/04 02:23:57;;;;;;;2.65;0.00;;;9.90;99.90;;;;;;5017505;28;20031;-77
2022/11/04 02:26:59;;;;;;;0.65;0.00;;;9.90;99.90;;;;;;5017460;28;20496;-77
2022/11/04 02:29:34;;;;;;;1.75;0.00;;;9.90;99.90;;;;;;5017258;28;20120;-78
2022/11/04 02:32:15;;;;;;;1.55;0.00;;;9.90;99.90;;;;;;5034851;28;20067;-78
2022/11/04 02:35:00;;;;;;;0.10;0.00;;;10.80;99.90;;;;;;5034448;28;20144;-78
2022/11/04 02:37:52;;;;;;;0.35;0.10;;;10.00;99.90;;;;;;5017383;28;20021;-78
2022/11/04 02:40:29;;;;;;;0.10;0.00;;;10.00;99.90;;;;;;5017323;28;20579;-78
2022/11/04 02:43:21;;;;;;;0.47;0.17;;;10.00;99.90;;;;;;5017150;28;20037;-78
2022/11/04 02:45:51;;;;;;;1.45;0.00;;;10.70;99.90;;;;;;5012377;28;20056;-77
2022/11/04 02:48:39;;;;;;;0.85;0.00;;;9.90;99.90;;;;;;5017161;28;20071;-78
2022/11/04 02:51:17;;;;;;;0.82;0.00;;;9.90;99.90;;;;;;5016732;28;20032;-77
2022/11/04 02:53:54;;;;;;;2.55;0.00;;;9.90;99.90;;;;;;5016985;28;20018;-78
2022/11/04 02:56:22;;;;;;;2.17;0.00;;;9.90;99.90;;;;;;5016982;28;20034;-77
2022/11/04 02:58:53;;;;;;;2.22;0.00;;;10.70;99.90;;;;;;5016973;28;20032;-77
2022/11/04 03:01:21;;;;;;;0.20;0.00;;;9.90;99.90;;;;;;5017005;28;20044;-77
2022/11/04 03:03:53;;;;;;;0.65;0.00;;;11.70;99.90;;;;;;5020823;28;20028;-77
2022/11/04 03:06:23;;;;;;;0.88;0.00;;;9.70;99.90;;;;;;5021385;28;20021;-77
2022/11/04 03:08:54;;;;;;;0.75;0.00;;;9.70;99.90;;;;;;5020478;28;20411;-77
2022/11/04 03:11:23;;;;;;;0.75;0.00;;;9.60;99.90;;;;;;5020800;28;20080;-77
2022/11/04 03:13:57;;;;;;;0.20;0.00;;;9.60;99.90;;;;;;5020798;28;20014;-78
2022/11/04 03:16:32;;;;;;;3.67;0.00;;;9.60;99.90;;;;;;5038371;28;20029;-78
2022/11/04 03:19:12;;;;;;;3.65;0.00;;;9.40;99.90;;;;;;5020786;28;20508;-78
2022/11/04 03:22:02;;;;;;;0.88;0.00;;;9.50;99.90;;;;;;5038739;28;20091;-78
2022/11/04 03:24:30;;;;;;;0.20;0.10;;;9.30;99.90;;;;;;5020836;28;20030;-77
2022/11/04 03:27:11;;;;;;;3.65;0.20;;;9.30;99.90;;;;;;5020908;28;20025;-78
2022/11/04 03:29:46;;;;;;;1.58;0.10;;;9.20;99.90;;;;;;5038912;28;20034;-77
2022/11/04 03:32:23;;;;;;;0.43;0.00;;;11.10;99.90;;;;;;5020682;28;20021;-77
2022/11/04 03:34:50;;;;;;;4.93;0.20;;;9.20;99.90;;;;;;5020711;28;20128;-78
2022/11/04 03:37:16;;;;;;;1.23;0.25;;;9.00;99.90;;;;;;5020166;28;20480;-78
2022/11/04 03:39:41;;;;;;;3.97;0.30;;;10.50;99.90;;;;;;5037955;28;20029;-77
2022/11/04 03:42:19;;;;;;;0.55;0.20;;;8.90;99.90;;;;;;5037573;28;20021;-78
2022/11/04 03:44:50;;;;;;;3.13;0.50;;;8.90;99.90;;;;;;5020249;28;20037;-78
2022/11/04 03:47:21;;;;;;;4.00;0.60;;;11.60;99.90;;;;;;5037875;28;20029;-78
2022/11/04 03:49:48;;;;;;;1.42;0.10;;;8.80;99.90;;;;;;5020298;28;20029;-78
2022/11/04 03:52:16;;;;;;;2.38;0.20;;;8.80;99.90;;;;;;5019635;28;20029;-78
2022/11/04 03:54:42;;;;;;;2.40;0.20;;;8.80;99.90;;;;;;5037292;28;20159;-77
2022/11/04 03:57:26;;;;;;;4.60;0.30;;;8.80;99.90;;;;;;5019892;28;20538;-78
2022/11/04 03:59:51;;;;;;;4.10;0.32;;;8.70;99.90;;;;;;5037192;28;20107;-77
2022/11/04 04:02:42;;;;;;;1.02;0.10;;;8.70;99.90;;;;;;5019345;28;20026;-78
2022/11/04 04:05:24;;;;;;;1.15;0.32;;;8.60;99.90;;;;;;5019557;28;20025;-78
2022/11/04 04:08:07;;;;;;;3.33;0.60;;;8.50;99.90;;;;;;5037071;28;20493;-77
2022/11/04 04:10:55;;;;;;;5.20;0.55;;;8.50;99.90;;;;;;5019752;28;20041;-78
2022/11/04 04:13:21;;;;;;;1.80;0.40;;;8.40;99.90;;;;;;5018412;28;20057;-77
2022/11/04 04:16:09;;;;;;;1.17;0.38;;;8.40;99.90;;;;;;5018832;28;20052;-78
2022/11/04 04:18:41;;;;;;;1.48;0.30;;;8.30;99.90;;;;;;5019211;28;20025;-77
2022/11/04 04:21:10;;;;;;;1.50;0.52;;;8.30;99.90;;;;;;5037843;28;20064;-78
2022/11/04 04:29:28;;;;;;;1.05;0.40;;;8.20;99.90;;;;;;5033158;28;20040;-78
2022/11/04 04:31:56;;;;;;;2.05;0.45;;;8.20;99.90;;;;;;5018783;28;20025;-78
2022/11/04 04:34:28;;;;;;;2.45;0.40;;;8.10;99.90;;;;;;5036142;28;20472;-77
2022/11/04 04:37:02;;;;;;;2.85;0.47;;;8.10;99.90;;;;;;5019827;28;20030;-78
2022/11/04 04:45:33;;;;;;;2.03;0.30;;;7.90;99.90;;;;;;5037073;28;20088;-78
2022/11/04 04:47:59;;;;;;;;;;;7.90;99.90;;;;;;5018732;28;20037;-78
2022/11/04 04:50:29;;;;;;;4.88;1.10;;;7.80;99.90;;;;;;5036301;28;19959;-78
2022/11/04 04:52:57;;;;;;;4.70;1.40;;;7.80;99.90;;;;;;5035984;28;20041;-77
2022/11/04 04:55:23;;;;;;;2.60;1.13;;;7.80;99.90;;;;;;5036311;28;20447;-78
2022/11/04 04:57:48;;;;;;;7.45;2.35;;;7.80;99.90;;;;;;5036143;28;20104;-78
2022/11/04 05:00:18;;;;;;;4.72;1.40;;;7.80;99.90;;;;;;5035923;28;20103;-78
2022/11/04 05:02:43;;;;;;;4.65;1.33;;;7.80;99.90;;;;;;5018386;28;20030;-77
2022/11/04 05:05:10;;;;;;;4.82;1.77;;;7.70;99.90;;;;;;5018225;28;20099;-78
2022/11/04 05:07:36;;;;;;;5.65;2.55;;;7.70;99.90;;;;;;5017830;28;20028;-78
2022/11/04 05:10:02;;;;;;;4.90;2.13;;;7.80;99.90;;;;;;5035975;28;20033;-78
2022/11/04 05:13:24;;;;;;;8.43;2.38;;;7.90;99.90;;;;;;5018139;28;20033;-77
2022/11/04 05:15:13;;;;;;;5.63;2.83;;;7.90;99.90;;;;;;5035677;28;20373;-78
2022/11/04 05:17:39;;;;;;;5.95;3.00;;;7.90;99.90;;;;;;5018085;28;20108;-78
2022/11/04 05:20:05;;;;;;;10.73;3.42;;;7.90;99.90;;;;;;5036081;28;20053;-77
2022/11/04 05:22:31;;;;;;;6.43;2.67;;;8.00;99.90;;;;;;5018113;28;20030;-77
2022/11/04 05:24:56;;;;;;;5.35;2.60;;;8.00;99.90;;;;;;5035197;28;20033;-77
2022/11/04 05:27:22;;;;;;;7.57;2.83;;;8.00;99.90;;;;;;5017929;28;20071;-78
2022/11/04 05:29:48;;;;;;;12.02;3.72;;;8.00;99.90;;;;;;5018206;28;20065;-78
2022/11/04 05:32:14;;;;;;;7.63;3.50;;;8.00;99.90;;;;;;5017395;28;20017;-78
2022/11/04 05:34:39;;;;;;;8.65;4.00;;;8.00;99.90;;;;;;5017439;28;20028;-78
2022/11/04 05:37:05;;;;;;;10.00;3.70;;;8.00;99.90;;;;;;5035066;28;20018;-78
2022/11/04 05:39:30;;;;;;;10.38;3.80;;;8.00;99.90;;;;;;5017876;28;20021;-78
2022/11/04 05:41:57;;;;;;;8.38;4.18;;;7.90;99.90;;;;;;5017599;28;20488;-77
2022/11/04 05:44:23;;;;;;;10.35;4.40;;;7.90;99.90;;;;;;5017274;28;20126;-78
2022/11/04 05:46:48;;;;;;;12.50;4.78;;;7.90;99.90;;;;;;5017292;28;20495;-78
2022/11/04 05:49:14;;;;;;;7.32;3.40;;;7.90;99.90;;;;;;5017365;28;20023;-78
2022/11/04 05:51:40;;;;;;;9.93;4.00;;;;;;;;;;5017485;28;20161;-78
2022/11/04 05:54:05;;;;;;;10.32;4.25;;;7.80;99.90;;;;;;5034780;28;20033;-78
2022/11/04 05:56:31;;;;;;;14.27;4.80;;;7.70;99.90;;;;;;5017085;28;20017;-78
2022/11/04 05:58:56;;;;;;;13.88;4.45;;;7.70;99.90;;;;;;5034626;28;20100;-78
2022/11/04 06:01:40;;;;;;;13.02;4.68;;;7.60;99.90;;;;;;5016749;28;20024;-73
2022/11/04 06:04:12;;;;;;;9.13;3.60;;;7.60;99.90;;;;;;5033458;28;20025;-73
2022/11/04 06:06:38;;;;;;;8.68;3.63;;;7.60;99.90;;;;;;5033582;28;20112;-75
2022/11/04 06:09:04;;;;;;;11.23;4.05;;;7.60;99.90;;;;;;5033408;28;20100;-73
2022/11/04 06:11:30;;;;;;;8.57;3.88;;;7.50;99.90;;;;;;5033423;28;20045;-73
2022/11/04 06:13:56;;;;;;;10.48;3.92;;;7.40;99.90;;;;;;5016144;28;20025;-74
2022/11/04 06:16:22;;;;;;;9.95;4.75;;;7.40;99.90;;;;;;5033426;28;20108;-73
2022/11/04 06:18:48;;;;;;;12.38;4.18;;;7.30;99.90;;;;;;5033348;28;20060;-73
2022/11/04 06:21:13;;;;;;;10.88;4.55;;;7.30;99.90;;;;;;5033236;28;20030;-73
2022/11/04 06:23:40;;;;;;;13.13;4.53;;;7.20;99.90;;;;;;5033499;28;20049;-74
2022/11/04 06:26:06;;;;;;;10.05;4.30;;;7.30;99.90;;;;;;5033763;28;20026;-73
2022/11/04 06:28:32;;;;;;;12.90;4.10;;;7.30;99.90;;;;;;5015423;28;20537;-73
2022/11/04 06:31:00;;;;;;;15.13;4.38;;;7.40;99.90;;;;;;5015565;28;20032;-73
2022/11/04 06:33:25;;;;;;;14.38;4.93;;;7.40;99.90;;;;;;5016363;28;20507;-80
2022/11/04 06:35:51;;;;;;;13.38;5.20;;;7.50;99.90;;;;;;5033964;28;20022;-73
2022/11/04 06:38:17;;;;;;;12.00;4.68;;;7.50;99.90;;;;;;5021123;28;20033;-74
2022/11/04 06:40:42;;;;;;;18.70;4.95;;;7.60;99.90;;;;;;5039706;28;20036;-74
2022/11/04 06:43:08;;;;;;;9.77;4.35;;;7.60;99.90;;;;;;5040050;28;20472;-76
2022/11/04 06:45:35;;;;;;;9.68;4.30;;;7.60;99.90;;;;;;5022767;28;20059;-76
2022/11/04 06:48:00;;;;;;;8.65;4.32;;;7.60;99.90;;;;;;5022285;28;20033;-72
2022/11/04 06:50:26;;;;;;;14.05;4.60;;;7.50;99.90;;;;;;5039503;28;20419;-73
2022/11/04 06:52:51;;;;;;;12.75;4.60;;;7.50;99.90;;;;;;5039471;28;20029;-72
2022/11/04 06:55:17;;;;;;;11.43;3.97;;;7.50;99.90;;;;;;5021834;28;20028;-72
2022/11/04 06:57:42;;;;;;;11.55;4.35;;;7.50;99.90;;;;;;5039958;28;20020;-72
2022/11/04 07:00:09;;;;;;;9.82;3.70;;;7.50;99.90;;;;;;5021731;28;20116;-72
2022/11/04 07:02:37;;;;;;;9.02;4.15;;;7.50;99.90;;;;;;5039342;28;20435;-72
2022/11/04 07:05:03;;;;;;;16.43;4.73;;;7.40;99.90;;;;;;5021731;28;20024;-72
2022/11/04 07:07:29;;;;;;;9.82;4.28;;;7.50;99.90;;;;;;5021907;28;20136;-72
2022/11/04 07:09:55;;;;;;;13.30;4.75;;;7.50;99.90;;;;;;5021628;28;20029;-72
2022/11/04 07:12:23;;;;;;;11.63;5.07;;;7.50;99.90;;;;;;5039934;28;20097;-72
2022/11/04 07:14:50;;;;;;;11.15;4.25;;;7.50;99.90;;;;;;5039902;28;20021;-72
2022/11/04 07:17:15;;;;;;;12.68;4.50;;;7.50;99.90;;;;;;5021518;28;20022;-73
2022/11/04 07:19:41;;;;;;;9.40;4.22;;;7.50;99.90;;;;;;5039201;28;20048;-72
2022/11/04 07:22:07;;;;;;;12.20;4.75;;;7.50;99.90;;;;;;5039770;28;20021;-72
2022/11/04 07:24:33;;;;;;;13.70;5.10;;;7.50;99.90;;;;;;5039242;28;20026;-72
2022/11/04 07:26:58;;;;;;;10.77;4.43;;;7.50;99.90;;;;;;5021486;28;20017;-72
2022/11/04 07:29:24;;;;;;;13.77;5.40;;;7.50;99.90;;;;;;5039730;28;20029;-72
2022/11/04 07:31:49;;;;;;;14.02;4.20;;;7.60;99.90;;;;;;5039681;28;20488;-73
2022/11/04 07:34:15;;;;;;;10.23;4.85;;;7.60;99.90;;;;;;5021376;28;20472;-72
2022/11/04 07:36:41;;;;;;;8.13;3.90;;;7.70;99.90;;;;;;5021424;28;20029;-72
2022/11/04 07:39:06;;;;;;;16.02;5.38;;;7.70;99.90;;;;;;5022181;28;20028;-72
2022/11/04 07:41:32;;;;;;;12.25;4.25;;;7.70;99.90;;;;;;5039119;28;20060;-73
2022/11/04 07:43:59;;;;;;;9.35;4.00;;;7.80;99.90;;;;;;5039103;28;20112;-73
2022/11/04 07:46:25;;;;;;;10.18;3.75;;;7.90;99.90;;;;;;5021192;28;20052;-73
2022/11/04 07:48:51;;;;;;;9.10;3.75;;;7.90;99.90;;;;;;5037372;28;20030;-73
2022/11/04 07:51:18;;;;;;;8.10;3.85;;;8.00;99.90;;;;;;5018005;28;20025;-73
2022/11/04 07:53:45;;;;;;;11.30;3.47;;;8.00;99.90;;;;;;5018072;28;20052;-72
2022/11/04 07:56:12;;;;;;;9.25;3.50;;;8.10;99.90;;;;;;5035885;28;20018;-72
2022/11/04 07:58:38;;;;;;;12.30;4.32;;;8.90;99.90;;;;;;5018075;28;20444;-73
2022/11/04 08:01:07;;;;;;;8.68;2.80;;;8.30;99.90;;;;;;5035776;28;20030;-73
2022/11/04 08:03:33;;;;;;;10.65;3.00;;;8.30;99.90;;;;;;5035731;28;20049;-73
2022/11/04 08:06:00;;;;;;;8.45;3.33;;;8.40;99.90;;;;;;5017931;28;20029;-72
2022/11/04 08:08:27;;;;;;;11.40;3.63;;;8.50;99.90;;;;;;5035446;28;20025;-73
2022/11/04 08:10:59;;;;;;;8.20;3.72;;;8.70;99.90;;;;;;5017823;28;20038;-72
2022/11/04 08:13:29;;;;;;;10.35;3.40;;;8.70;99.90;;;;;;5036006;28;20111;-73
2022/11/04 08:15:55;;;;;;;15.82;4.45;;;8.80;99.90;;;;;;5036071;28;20025;-73
2022/11/04 08:18:21;;;;;;;9.73;3.40;;;8.90;99.90;;;;;;5017724;28;20025;-73
2022/11/04 08:20:50;;;;;;;12.70;2.58;;;8.90;99.90;;;;;;5035934;28;20036;-73
2022/11/04 08:23:17;;;;;;;11.60;3.97;;;9.00;99.90;;;;;;5035370;28;20550;-72
2022/11/04 08:25:43;;;;;;;12.90;3.15;;;9.10;99.90;;;;;;5035323;28;20025;-72
2022/11/04 08:28:12;;;;;;;12.88;3.33;;;9.10;99.90;;;;;;5035197;28;20037;-73
2022/11/04 08:30:38;;;;;;;9.77;2.75;;;9.20;99.90;;;;;;5017439;28;20017;-73
2022/11/04 08:33:04;;;;;;;17.45;2.72;;;10.50;99.90;;;;;;5035168;28;20095;-73
2022/11/04 08:35:30;;;;;;;8.63;3.35;;;9.30;99.90;;;;;;5035618;28;20041;-72
2022/11/04 08:37:55;;;;;;;5.78;2.70;;;9.50;99.90;;;;;;5035223;28;20527;-73
2022/11/04 08:40:21;;;;;;;10.85;2.42;;;9.50;99.90;;;;;;5017302;28;20376;-73
2022/11/04 08:42:47;;;;;;;7.97;2.60;;;9.50;99.90;;;;;;5017138;28;20037;-72
2022/11/04 08:45:12;;;;;;;10.02;3.28;;;9.60;99.90;;;;;;5034959;28;20082;-72
2022/11/04 08:47:38;;;;;;;9.18;2.00;;;9.70;99.90;;;;;;5035771;28;20079;-73
2022/11/04 08:50:04;;;;;;;6.82;2.50;;;9.80;99.90;;;;;;5017036;28;20159;-72
2022/11/04 08:52:29;;;;;;;14.63;3.80;;;9.90;99.90;;;;;;5034587;28;20494;-73
2022/11/04 08:54:55;;;;;;;11.50;2.03;;;9.90;99.90;;;;;;5017157;28;20115;-73
2022/11/04 08:57:21;;;;;;;9.52;2.95;;;10.00;99.90;;;;;;5034831;28;20388;-72
2022/11/04 08:59:46;;;;;;;8.73;2.72;;;10.10;99.90;;;;;;5034762;28;20083;-73
2022/11/04 09:02:14;;;;;;;14.70;3.33;;;10.10;99.90;;;;;;5035097;28;20034;-73
2022/11/04 09:04:40;;;;;;;9.75;2.83;;;10.20;99.90;;;;;;5034389;28;20104;-73
2022/11/04 09:07:06;;;;;;;12.50;2.95;;;10.30;99.90;;;;;;5034622;28;20489;-73
2022/11/04 09:09:32;;;;;;;12.13;2.78;;;10.40;99.90;;;;;;5034548;28;20026;-72
2022/11/04 09:11:58;;;;;;;9.77;2.67;;;10.50;99.90;;;;;;5034470;28;20021;-72
2022/11/04 09:14:23;;;;;;;10.80;3.70;;;10.50;99.90;;;;;;5034928;28;20072;-72
2022/11/04 09:16:49;;;;;;;9.90;3.08;;;10.50;99.90;;;;;;5034971;28;20021;-72
2022/11/04 09:19:14;;;;;;;12.65;3.55;;;10.60;99.90;;;;;;5016582;28;20014;-73
2022/11/04 09:21:40;;;;;;;10.43;3.38;;;10.60;99.90;;;;;;5034359;28;20029;-72
2022/11/04 09:24:06;;;;;;;12.25;3.10;;;10.60;99.90;;;;;;5034265;28;20457;-73
2022/11/04 09:26:33;;;;;;;13.15;3.08;;;10.60;99.90;;;;;;5034784;28;20353;-73
2022/11/04 09:28:58;;;;;;;12.25;3.78;;;10.60;99.90;;;;;;5034150;28;20026;-73
2022/11/04 09:31:26;;;;;;;11.80;3.42;;;10.60;99.90;;;;;;5034172;28;20021;-72
2022/11/04 09:33:54;;;;;;;10.90;3.90;;;10.50;99.90;;;;;;5034153;28;20100;-72
2022/11/04 09:36:20;;;;;;;8.30;3.30;;;10.50;99.90;;;;;;5034033;28;20022;-73
2022/11/04 09:38:45;;;;;;;10.57;3.42;;;10.40;99.90;;;;;;5016227;28;20370;-73
2022/11/04 09:41:31;;;;;;;7.47;3.08;;;10.40;99.90;;;;;;5034037;28;20033;-73
2022/11/04 09:44:18;;;;;;;7.95;3.15;;;10.50;99.90;;;;;;5016633;28;20037;-72
2022/11/04 09:46:47;;;;;;;13.80;3.65;;;10.60;99.90;;;;;;5016200;28;20029;-72
2022/11/04 09:49:15;;;;;;;7.25;2.78;;;10.90;99.90;;;;;;5033703;28;20079;-73
2022/11/04 09:51:41;;;;;;;12.02;3.38;;;11.00;99.90;;;;;;5034041;28;20477;-73
2022/11/04 09:54:15;;;;;;;8.20;3.03;;;11.20;99.90;;;;;;5015962;28;20021;-72
2022/11/04 09:56:44;;;;;;;14.23;3.90;;;11.40;99.90;;;;;;5015927;28;20447;-72
2022/11/04 09:59:14;;;;;;;9.60;3.25;;;11.50;99.90;;;;;;5033700;28;20546;-72
2022/11/04 10:02:17;;;;;;;8.75;3.65;;;11.60;99.90;;;;;;5015995;28;20033;-73
2022/11/04 10:04:54;;;;;;;12.88;3.05;;;11.70;99.90;;;;;;5011274;28;20120;-72
2022/11/04 10:07:32;;;;;;;23.58;4.03;;;11.70;99.90;;;;;;5015857;28;20466;-73
2022/11/04 10:10:05;;;;;;;6.40;3.03;;;11.90;99.90;;;;;;5015789;28;20021;-73
2022/11/04 10:13:09;;;;;;;7.88;3.83;;;11.90;99.90;;;;;;5014933;28;20120;-73
2022/11/04 10:16:09;;;;;;;11.88;2.88;;;11.90;99.90;;;;;;5003833;28;20507;-72
2022/11/04 10:18:41;;;;;;;7.22;3.58;;;11.90;99.90;;;;;;5015686;28;20116;-73
2022/11/04 10:21:48;;;;;;;5.97;2.88;;;11.90;99.90;;;;;;5033312;28;20030;-73
2022/11/04 10:24:32;;;;;;;9.20;3.20;;;12.00;99.90;;;;;;4997973;28;20115;-73
2022/11/04 10:27:03;;;;;;;19.05;4.18;;;11.90;99.90;;;;;;5015722;28;20531;-73
2022/11/04 10:29:42;;;;;;;8.48;3.78;;;11.90;99.90;;;;;;5033331;28;20052;-72
2022/11/04 10:32:31;;;;;;;9.48;2.88;;;11.90;99.90;;;;;;5033834;28;20014;-73
2022/11/04 10:35:31;;;;;;;6.32;2.92;;;12.10;99.90;;;;;;5015549;28;20056;-73
2022/11/04 10:38:12;;;;;;;6.38;2.63;;;12.20;99.90;;;;;;5033268;28;20029;-72
2022/11/04 10:40:40;;;;;;;5.35;2.40;;;12.40;99.90;;;;;;5015561;28;20013;-72
2022/11/04 10:43:12;;;;;;;4.47;2.58;;;12.50;99.90;;;;;;5033110;28;20025;-72
2022/11/04 10:45:55;;;;;;;6.30;2.33;;;12.60;99.90;;;;;;5033689;28;20018;-72
2022/11/04 10:48:29;;;;;;;5.47;2.40;;;12.70;99.90;;;;;;5033059;28;20057;-72
2022/11/04 10:50:57;;;;;;;6.65;2.95;;;13.00;99.90;;;;;;5024847;22;20020;-76
2022/11/04 10:53:32;;;;;;;6.88;2.20;;;15.50;99.90;;;;;;5032668;28;20480;-76
2022/11/04 10:56:19;;;;;;;8.52;3.30;;;17.30;99.90;;;;;;5032989;28;20032;-76
2022/11/04 10:58:46;;;;;;;5.28;2.10;;;13.10;99.90;;;;;;5032940;28;20453;-76
2022/11/04 11:01:29;;;;;;;4.53;2.08;;;13.10;99.90;;;;;;5032918;28;20079;-76
2022/11/04 11:03:56;;;;;;;5.53;2.10;;;13.10;99.90;;;;;;5032963;28;20030;-76
2022/11/04 11:06:31;;;;;;;6.00;1.80;;;13.20;99.90;;;;;;5033453;28;20029;-76
2022/11/04 11:09:20;;;;;;;6.32;2.03;;;13.20;99.90;;;;;;5033192;28;20377;-76
2022/11/04 11:11:48;;;;;;;2.63;1.45;;;13.00;99.90;;;;;;5015254;28;20025;-76
2022/11/04 11:14:18;;;;;;;4.53;1.55;;;13.00;99.90;;;;;;5032841;28;20021;-76
2022/11/04 11:16:46;;;;;;;5.43;2.17;;;12.80;99.90;;;;;;5015165;28;20025;-76
2022/11/04 11:19:19;;;;;;;7.57;1.98;;;12.70;99.90;;;;;;5015063;28;20014;-76
2022/11/04 11:21:49;;;;;;;7.70;2.22;;;12.70;99.90;;;;;;5032821;28;20097;-76
2022/11/04 11:24:22;;;;;;;3.90;1.60;;;12.80;99.90;;;;;;5017595;28;20022;-76
2022/11/04 11:26:51;;;;;;;3.20;1.23;;;12.80;99.90;;;;;;5036451;28;20476;-76
2022/11/04 11:29:28;;;;;;;10.15;2.38;;;12.80;99.90;;;;;;5018737;28;20493;-76
2022/11/04 11:31:55;;;;;;;4.63;1.33;;;12.80;99.90;;;;;;5018905;28;20018;-76
2022/11/04 11:34:29;;;;;;;7.25;2.10;;;12.90;99.90;;;;;;5018602;28;20539;-76
2022/11/04 11:36:56;;;;;;;5.22;1.80;;;13.00;99.90;;;;;;5036980;28;20025;-76
2022/11/04 11:39:30;;;;;;;6.85;1.55;;;13.10;99.90;;;;;;5036199;28;20029;-76
2022/11/04 11:42:11;;;;;;;7.95;1.50;;;13.30;99.90;;;;;;5036064;28;20033;-76
2022/11/04 11:44:46;;;;;;;5.07;1.55;;;13.40;99.90;;;;;;5036136;28;20017;-76
2022/11/04 11:47:27;;;;;;;3.85;1.20;;;13.60;99.90;;;;;;5036130;28;20030;-76
2022/11/04 11:50:17;;;;;;;2.30;1.00;;;13.80;99.90;;;;;;5018169;28;20025;-75
2022/11/04 11:52:47;;;;;;;2.33;0.82;;;13.90;99.90;;;;;;5035795;28;20036;-75
2022/11/04 11:55:34;;;;;;;8.00;1.60;;;13.80;99.90;;;;;;5018201;28;20026;-76
2022/11/04 11:58:15;;;;;;;4.10;1.10;;;13.90;99.90;;;;;;5036186;28;20021;-75
2022/11/04 12:00:49;;;;;;;2.95;0.80;;;13.90;99.90;;;;;;5036159;28;20025;-76
2022/11/04 12:03:24;;;;;;;6.45;1.20;;;14.00;99.90;;;;;;5036066;28;20104;-76
2022/11/04 12:06:06;;;;;;;1.55;0.75;;;14.00;99.90;;;;;;5018109;28;20017;-76
2022/11/04 12:08:54;;;;;;;5.72;1.00;;;13.90;99.90;;;;;;5035722;28;20025;-76
2022/11/04 12:11:38;;;;;;;3.92;0.98;;;13.90;99.90;;;;;;5019137;28;20112;-75
2022/11/04 12:14:16;;;;;;;4.68;1.45;;;13.90;99.90;;;;;;5036049;28;20033;-76
2022/11/04 12:17:06;;;;;;;5.18;1.10;;;13.90;99.90;;;;;;5035630;28;20029;-76
2022/11/04 12:20:02;;;;;;;3.90;1.10;;;13.90;99.90;;;;;;5017743;28;20071;-76
2022/11/04 12:22:40;;;;;;;2.63;1.08;;;14.00;99.90;;;;;;5035986;28;20103;-76
2022/11/04 12:25:36;;;;;;;3.80;1.15;;;13.90;99.90;;;;;;5035514;28;20021;-76
2022/11/04 12:28:21;;;;;;;5.10;1.15;;;13.80;99.90;;;;;;5035374;28;20033;-76
2022/11/04 12:31:29;;;;;;;2.25;0.57;;;13.70;99.90;;;;;;5017654;28;20032;-76
2022/11/04 12:34:28;;;;;;;7.53;1.25;;;13.50;99.90;;;;;;4980604;28;20049;-76
2022/11/04 12:37:32;;;;;;;4.18;1.10;;;13.50;99.90;;;;;;4997019;28;20072;-76
2022/11/04 12:40:20;;;;;;;4.45;1.38;;;13.40;99.90;;;;;;5035231;28;20489;-76
2022/11/04 12:42:53;;;;;;;9.17;1.53;;;13.40;99.90;;;;;;5017330;28;20029;-76
2022/11/04 12:45:44;;;;;;;2.40;1.30;;;13.40;99.90;;;;;;5017369;28;20036;-76
2022/11/04 12:48:27;;;;;;;6.68;1.27;;;13.50;99.90;;;;;;5035561;28;20029;-76
2022/11/04 12:51:03;;;;;;;6.88;1.33;;;13.60;99.90;;;;;;5035038;28;20361;-75
2022/11/04 12:53:56;;;;;;;2.92;1.00;;;13.80;99.90;;;;;;5034944;28;20029;-76
2022/11/04 12:56:52;;;;;;;3.17;1.40;;;14.00;99.90;;;;;;5017235;28;20017;-76
2022/11/04 12:59:36;;;;;;;3.70;1.25;;;14.10;99.90;;;;;;5012283;28;20129;-75
2022/11/04 13:02:13;;;;;;;4.03;1.15;;;14.10;99.90;;;;;;5034778;28;20103;-76
2022/11/04 13:04:46;;;;;;;5.03;1.52;;;13.90;99.90;;;;;;5034671;28;20028;-76
2022/11/04 13:07:23;;;;;;;2.85;1.10;;;13.80;99.90;;;;;;5034718;28;20107;-76
2022/11/04 13:09:54;;;;;;;2.78;0.45;;;13.70;99.90;;;;;;5016844;28;20029;-76
2022/11/04 13:12:24;;;;;;;2.20;0.10;;;13.60;99.90;;;;;;5034548;28;20041;-76
2022/11/04 13:15:21;;;;;;;4.38;0.00;;;13.40;99.90;;;;;;5034456;28;20022;-76
2022/11/04 13:17:53;;;;;;;0.47;0.00;;;13.10;99.90;;;;;;5015456;28;20057;-76
2022/11/04 13:20:41;;;;;;;0.30;0.00;;;12.90;99.90;;;;;;5034892;28;20025;-76
2022/11/04 13:23:11;;;;;;;;;;;13.00;99.90;;;;;;5034739;28;20116;-76
2022/11/04 13:25:41;;;;;;;1.08;0.28;;;13.30;99.90;;;;;;5034255;28;19905;-76
2022/11/04 13:28:12;;;;;;;1.15;0.00;;;13.80;99.90;;;;;;5016470;28;20499;-76
2022/11/04 13:31:02;;;;;;;0.85;0.00;;;14.50;99.90;;;;;;5034210;28;20029;-76
2022/11/04 13:33:33;;;;;;;0.45;0.00;;;15.10;99.90;;;;;;5016446;28;20026;-76
2022/11/04 13:36:04;;;;;;;3.17;0.47;;;15.60;99.90;;;;;;5034100;28;20025;-76
2022/11/04 13:38:40;;;;;;;1.20;0.03;;;15.90;99.90;;;;;;5016357;28;20400;-76
2022/11/04 13:41:18;;;;;;;0.85;0.28;;;16.00;99.90;;;;;;5034020;28;20100;-76
2022/11/04 13:43:52;;;;;;;0.45;0.00;;;15.80;99.90;;;;;;5016124;28;20053;-76
2022/11/04 13:46:17;;;;;;;0.90;0.00;;;15.60;99.90;;;;;;5033915;28;20100;-76